createdAt,value
2022-11-25T00:01:37.357Z,55.8
2022-11-25T00:04:03.960Z,55.8
2022-11-25T00:06:30.664Z,55.7
2022-11-25T00:08:55.919Z,55.6
2022-11-25T00:11:22.550Z,55.5
2022-11-25T00:13:49.248Z,55.2
2022-11-25T00:16:15.927Z,55.1
2022-11-25T00:18:42.623Z,55.2
2022-11-25T00:21:09.306Z,55.3
2022-11-25T00:23:35.986Z,55.1
2022-11-25T00:28:29.355Z,55.4
2022-11-25T00:30:56.050Z,55.5
2022-11-25T00:33:24.314Z,55.6
2022-11-25T00:35:49.417Z,55.6
2022-11-25T00:38:16.099Z,55.7
2022-11-25T00:43:07.993Z,55.8
2022-11-25T00:45:34.676Z,55.7
2022-11-25T00:48:01.371Z,55.8
2022-11-25T00:50:28.079Z,55.7
2022-11-25T00:52:54.734Z,55.5
2022-11-25T00:57:48.104Z,55.6
2022-11-25T01:00:13.415Z,55.6
2022-11-25T01:02:40.057Z,55.6
2022-11-25T01:05:06.733Z,55.6
2022-11-25T01:07:31.979Z,55.5
2022-11-25T01:09:58.632Z,55.4
2022-11-25T01:12:25.329Z,55.3
2022-11-25T01:14:52.001Z,55.3
2022-11-25T01:17:18.727Z,55.3
2022-11-25T01:19:45.397Z,55.3
2022-11-25T01:22:12.079Z,55.4
2022-11-25T01:24:38.743Z,55.4
2022-11-25T01:27:05.432Z,55.3
2022-11-25T01:29:32.223Z,55.3
2022-11-25T01:31:58.818Z,55.3
2022-11-25T01:34:25.487Z,55.2
2022-11-25T01:36:50.771Z,55.2
2022-11-25T01:39:15.959Z,55.2
2022-11-25T01:41:42.627Z,55.1
2022-11-25T01:44:09.317Z,55
2022-11-25T01:46:36.150Z,55
2022-11-25T01:49:02.703Z,54.9
2022-11-25T01:51:29.379Z,54.9
2022-11-25T01:53:56.065Z,54.9
2022-11-25T01:56:22.771Z,54.4
2022-11-25T01:58:49.445Z,54.4
2022-11-25T02:01:16.134Z,54.4
2022-11-25T02:03:42.807Z,54.3
2022-11-25T02:06:09.487Z,54.3
2022-11-25T02:08:36.253Z,54.3
2022-11-25T02:11:02.852Z,54.3
2022-11-25T02:13:29.549Z,54.4
2022-11-25T02:15:54.764Z,54.4
2022-11-25T02:18:21.467Z,54.6
2022-11-25T02:20:48.138Z,54.6
2022-11-25T02:23:14.815Z,54.8
2022-11-25T02:25:41.500Z,54.8
2022-11-25T02:28:08.198Z,54.8
2022-11-25T02:30:34.868Z,54.8
2022-11-25T02:33:01.572Z,54.8
2022-11-25T02:35:28.246Z,54.7
2022-11-25T02:37:54.944Z,54.8
2022-11-25T02:40:21.623Z,54.8
2022-11-25T02:42:48.299Z,54.7
2022-11-25T02:45:14.988Z,54.7
2022-11-25T02:47:41.687Z,54.7
2022-11-25T02:50:06.889Z,54.7
2022-11-25T02:52:33.579Z,54.7
2022-11-25T02:55:00.262Z,54.7
2022-11-25T02:57:26.953Z,54.6
2022-11-25T02:59:53.642Z,54.6
2022-11-25T03:02:20.321Z,54.5
2022-11-25T03:04:47.060Z,54.5
2022-11-25T03:07:13.696Z,54.5
2022-11-25T03:09:40.489Z,54.5
2022-11-25T03:12:07.068Z,54.5
2022-11-25T03:14:33.746Z,54.4
2022-11-25T03:17:00.430Z,54.4
2022-11-25T03:19:27.113Z,54.5
2022-11-25T03:21:53.793Z,54.5
2022-11-25T03:24:20.491Z,54.6
2022-11-25T03:26:47.184Z,54.7
2022-11-25T03:29:12.397Z,54.7
2022-11-25T03:31:39.084Z,54.7
2022-11-25T03:34:05.769Z,54.7
2022-11-25T03:36:32.443Z,54.8
2022-11-25T03:38:59.157Z,54.8
2022-11-25T03:41:25.815Z,54.9
2022-11-25T03:43:52.500Z,54.9
2022-11-25T03:46:19.200Z,54.9
2022-11-25T03:48:45.872Z,55
2022-11-25T03:51:12.602Z,55.1
2022-11-25T03:53:39.249Z,55.2
2022-11-25T03:56:05.939Z,55.2
2022-11-25T03:58:32.608Z,55.2
2022-11-25T04:00:59.355Z,55.2
2022-11-25T04:03:24.517Z,55.2
2022-11-25T04:05:51.208Z,55.1
2022-11-25T04:08:17.952Z,55.1
2022-11-25T04:10:44.592Z,55.1
2022-11-25T04:13:11.252Z,55.2
2022-11-25T04:15:37.952Z,55.2
2022-11-25T04:18:04.626Z,55.2
2022-11-25T04:20:31.319Z,55.1
2022-11-25T04:22:58.004Z,55
2022-11-25T04:25:24.692Z,55.1
2022-11-25T04:27:51.368Z,55.1
2022-11-25T04:30:18.049Z,55.1
2022-11-25T04:32:44.750Z,55.1
2022-11-25T04:35:11.424Z,55.1
2022-11-25T04:37:38.152Z,55
2022-11-25T04:40:04.799Z,55
2022-11-25T04:42:30.040Z,55
2022-11-25T04:44:56.758Z,55
2022-11-25T04:47:23.378Z,54.9
2022-11-25T04:49:50.072Z,54.9
2022-11-25T04:52:16.763Z,55
2022-11-25T04:54:43.439Z,55
2022-11-25T04:57:10.126Z,55
2022-11-25T04:59:36.816Z,55
2022-11-25T05:02:03.508Z,54.9
2022-11-25T05:04:30.187Z,54.9
2022-11-25T05:06:56.876Z,54.8
2022-11-25T05:09:23.568Z,54.8
2022-11-25T05:11:50.240Z,54.8
2022-11-25T05:14:17.035Z,54.7
2022-11-25T05:16:42.147Z,54.7
2022-11-25T05:19:08.839Z,54.6
2022-11-25T05:21:35.526Z,54.6
2022-11-25T05:24:02.285Z,54.6
2022-11-25T05:26:28.888Z,54.6
2022-11-25T05:28:55.573Z,54.7
2022-11-25T05:31:22.410Z,54.7
2022-11-25T05:33:48.941Z,54.7
2022-11-25T05:36:15.670Z,54.7
2022-11-25T05:38:42.368Z,54.7
2022-11-25T05:41:08.994Z,54.8
2022-11-25T05:43:35.694Z,54.9
2022-11-25T05:46:02.372Z,54.9
2022-11-25T05:48:29.081Z,55
2022-11-25T05:53:22.487Z,54.9
2022-11-25T05:55:47.714Z,54.9
2022-11-25T05:58:14.360Z,54.9
2022-11-25T06:00:41.017Z,54.9
2022-11-25T06:03:07.723Z,54.9
2022-11-25T06:05:34.401Z,55
2022-11-25T06:08:01.111Z,55
2022-11-25T06:10:27.760Z,55.1
2022-11-25T06:12:54.444Z,55.2
2022-11-25T06:15:21.227Z,55.2
2022-11-25T06:17:47.808Z,55.4
2022-11-25T06:20:14.557Z,55.5
2022-11-25T06:22:41.204Z,55.6
2022-11-25T06:25:07.889Z,55.7
2022-11-25T06:27:34.653Z,55.7
2022-11-25T06:29:59.778Z,55.8
2022-11-25T06:32:26.468Z,55.9
2022-11-25T06:34:53.156Z,56
2022-11-25T06:39:46.652Z,56
2022-11-25T06:42:13.211Z,56.1
2022-11-25T06:44:39.934Z,56.1
2022-11-25T06:47:06.571Z,56.1
2022-11-25T06:49:33.290Z,56.1
2022-11-25T06:51:59.954Z,56.1
2022-11-25T06:54:26.674Z,56
2022-11-25T06:56:53.328Z,56.1
2022-11-25T06:59:20.001Z,56.2
2022-11-25T07:01:46.687Z,56.3
2022-11-25T07:04:13.774Z,56.3
2022-11-25T07:06:40.116Z,56.4
2022-11-25T07:09:05.325Z,56.5
2022-11-25T07:11:32.041Z,56.5
2022-11-25T07:13:58.690Z,56.6
2022-11-25T07:16:25.512Z,56.6
2022-11-25T07:18:52.127Z,56.7
2022-11-25T07:21:18.836Z,56.7
2022-11-25T07:23:45.419Z,56.7
2022-11-25T07:26:12.115Z,56.7
2022-11-25T07:28:39.394Z,56.7
2022-11-25T07:31:05.474Z,56.7
2022-11-25T07:33:32.200Z,56.2
2022-11-25T07:35:58.853Z,55.6
2022-11-25T07:38:25.540Z,55.1
2022-11-25T07:40:50.962Z,54.7
2022-11-25T07:43:17.439Z,52.5
2022-11-25T07:45:44.285Z,49.8
2022-11-25T07:48:10.904Z,49.8
2022-11-25T07:50:37.586Z,49.7
2022-11-25T07:53:06.129Z,49.1
2022-11-25T07:55:30.901Z,47.9
2022-11-25T07:57:57.576Z,47.7
2022-11-25T08:00:24.390Z,47.6
2022-11-25T08:02:51.007Z,42.8
2022-11-25T08:05:17.620Z,35.6
2022-11-25T08:07:44.409Z,36.1
2022-11-25T08:10:11.126Z,34.4
2022-11-25T08:12:36.334Z,33.1
2022-11-25T08:15:03.008Z,34.6
2022-11-25T08:17:33.599Z,37.1
2022-11-25T08:19:56.333Z,39
2022-11-25T08:22:22.987Z,40
2022-11-25T08:24:49.683Z,40.6
2022-11-25T08:27:16.406Z,40.8
2022-11-25T08:29:42.994Z,40.9
2022-11-25T08:32:09.812Z,41.3
2022-11-25T08:34:36.529Z,41.9
2022-11-25T08:37:03.184Z,42.2
2022-11-25T08:39:29.745Z,42.4
2022-11-25T08:41:56.419Z,42.8
2022-11-25T08:44:23.114Z,42.9
2022-11-25T08:46:49.795Z,42.9
2022-11-25T08:49:16.490Z,43
2022-11-25T08:51:41.728Z,43
2022-11-25T08:54:08.423Z,43.1
2022-11-25T08:56:35.068Z,43.2
2022-11-25T08:59:01.758Z,43.4
2022-11-25T09:01:28.471Z,43.5
2022-11-25T09:03:55.116Z,43.3
2022-11-25T09:06:21.804Z,43.3
2022-11-25T09:08:48.489Z,43.2
2022-11-25T09:11:15.181Z,42.9
2022-11-25T09:16:08.531Z,42.4
2022-11-25T09:21:01.908Z,42
2022-11-25T09:23:28.589Z,41.8
2022-11-25T09:30:47.494Z,41.4
2022-11-25T09:33:12.440Z,41.4
2022-11-25T09:35:37.654Z,41.1
2022-11-25T09:38:04.346Z,40.7
2022-11-25T09:40:31.151Z,40.1
2022-11-25T09:42:57.745Z,39.8
2022-11-25T09:45:24.553Z,39.6
2022-11-25T09:50:17.971Z,39.9
2022-11-25T09:52:44.446Z,39.4
2022-11-25T09:55:11.142Z,40.6
2022-11-25T10:04:57.889Z,43.6
2022-11-25T10:07:23.104Z,43.6
2022-11-25T10:09:48.350Z,44.5
2022-11-25T10:12:15.036Z,44
2022-11-25T10:14:41.719Z,48.7
2022-11-25T10:17:08.407Z,49.9
2022-11-25T10:19:35.094Z,50.4
2022-11-25T10:22:01.783Z,50.1
2022-11-25T10:24:27.048Z,53.8
2022-11-25T10:29:20.416Z,52.7
2022-11-25T10:34:13.731Z,53.3
2022-11-25T10:36:40.422Z,53.1
2022-11-25T10:39:07.095Z,53.9
2022-11-25T10:41:33.794Z,52.9
2022-11-25T10:44:00.486Z,51.1
2022-11-25T10:46:27.168Z,50.4
2022-11-25T10:48:53.843Z,50
2022-11-25T10:51:20.536Z,49.9
2022-11-25T10:53:47.374Z,49.7
2022-11-25T10:56:12.630Z,50
2022-11-25T10:58:39.127Z,50.1
2022-11-25T11:01:05.804Z,53.4
2022-11-25T11:03:32.495Z,53
2022-11-25T11:05:59.183Z,56.8
2022-11-25T11:08:25.883Z,58.1
2022-11-25T11:10:52.558Z,57.6
2022-11-25T11:13:19.235Z,57.7
2022-11-25T11:18:12.606Z,57
2022-11-25T11:20:39.293Z,57.4
2022-11-25T11:23:05.973Z,56.3
2022-11-25T11:25:32.659Z,58
2022-11-25T11:27:59.343Z,56.2
2022-11-25T11:30:26.041Z,55.6
2022-11-25T11:32:51.274Z,56.4
2022-11-25T11:35:16.574Z,56.1
2022-11-25T11:37:43.192Z,56.9
2022-11-25T11:40:09.883Z,58
2022-11-25T11:42:36.563Z,57.9
2022-11-25T11:45:03.264Z,61
2022-11-25T11:47:29.923Z,62.8
2022-11-25T11:49:56.618Z,60.7
2022-11-25T11:52:23.303Z,59
2022-11-25T11:54:50.005Z,57
2022-11-25T11:57:16.659Z,55.5
2022-11-25T11:59:41.918Z,56
2022-11-25T12:02:07.135Z,57.3
2022-11-25T12:04:33.842Z,56.8
2022-11-25T12:07:00.763Z,55.5
2022-11-25T12:09:27.200Z,56.1
2022-11-25T12:11:53.878Z,55.8
2022-11-25T12:14:20.564Z,56.9
2022-11-25T12:16:47.244Z,56.5
2022-11-25T12:19:13.941Z,54.8
2022-11-25T12:21:40.620Z,54.2
2022-11-25T12:24:07.316Z,54.4
2022-11-25T12:26:33.981Z,55.4
2022-11-25T12:29:00.664Z,55.7
2022-11-25T12:31:27.348Z,53.6
2022-11-25T12:33:54.165Z,52.1
2022-11-25T12:36:19.251Z,51.8
2022-11-25T12:38:45.952Z,51.6
2022-11-25T12:41:12.630Z,52.1
2022-11-25T12:43:39.315Z,53.1
2022-11-25T12:46:05.989Z,54.5
2022-11-25T12:48:32.688Z,53.2
2022-11-25T12:50:59.376Z,54.5
2022-11-25T12:53:26.050Z,55.5
2022-11-25T12:55:52.880Z,54.2
2022-11-25T13:00:46.112Z,52.8
2022-11-25T13:03:12.811Z,54.1
2022-11-25T13:05:39.470Z,53.6
2022-11-25T13:08:04.841Z,53.7
2022-11-25T13:10:31.525Z,53.5
2022-11-25T13:12:58.154Z,52.8
2022-11-25T13:17:51.510Z,51.1
2022-11-25T13:20:18.142Z,50.6
2022-11-25T13:22:44.934Z,50.5
2022-11-25T13:25:11.506Z,50.8
2022-11-25T13:27:38.192Z,50.6
2022-11-25T13:30:04.887Z,49.9
2022-11-25T13:32:31.564Z,49.3
2022-11-25T13:35:05.155Z,49.5
2022-11-25T13:37:24.924Z,49.5
2022-11-25T13:39:51.601Z,49.3
2022-11-25T13:42:18.290Z,48.8
2022-11-25T13:44:43.517Z,48.6
2022-11-25T13:47:10.217Z,48.1
2022-11-25T13:49:36.893Z,47.7
2022-11-25T13:52:03.572Z,47.4
2022-11-25T13:54:30.247Z,47.5
2022-11-25T13:56:56.948Z,47
2022-11-25T13:59:23.610Z,46.7
2022-11-25T14:01:50.314Z,46.3
2022-11-25T14:06:43.688Z,45.5
2022-11-25T14:09:10.376Z,45.5
2022-11-25T14:11:37.058Z,45.9
2022-11-25T14:14:03.740Z,46.3
2022-11-25T14:16:29.008Z,46.3
2022-11-25T14:18:55.642Z,46.4
2022-11-25T14:21:22.357Z,46.4
2022-11-25T14:23:49.459Z,46.6
2022-11-25T14:26:15.699Z,47.3
2022-11-25T14:28:42.994Z,47.9
2022-11-25T14:31:09.070Z,47.8
2022-11-25T14:33:35.762Z,47.5
2022-11-25T14:36:02.439Z,46.8
2022-11-25T14:38:29.119Z,46.6
2022-11-25T14:40:55.862Z,46.8
2022-11-25T14:43:22.577Z,46.7
2022-11-25T14:45:49.220Z,46.2
2022-11-25T14:48:14.435Z,46
2022-11-25T14:50:41.123Z,45.7
2022-11-25T14:53:07.804Z,46
2022-11-25T14:55:34.480Z,45.6
2022-11-25T14:58:01.182Z,45
2022-11-25T15:00:27.863Z,44.6
2022-11-25T15:02:54.555Z,44.3
2022-11-25T15:05:21.232Z,44.2
2022-11-25T15:07:47.916Z,44.4
2022-11-25T15:10:14.610Z,44.5
2022-11-25T15:12:41.287Z,44.5
2022-11-25T15:15:07.978Z,44.5
2022-11-25T15:17:34.660Z,44.3
2022-11-25T15:20:01.345Z,44.2
2022-11-25T15:22:28.049Z,43.9
2022-11-25T15:24:53.264Z,43.8
2022-11-25T15:27:19.961Z,43.7
2022-11-25T15:29:46.799Z,43.6
2022-11-25T15:32:13.457Z,43.4
2022-11-25T15:34:40.206Z,43.4
2022-11-25T15:37:07.010Z,43.3
2022-11-25T15:42:00.258Z,43
2022-11-25T15:44:26.919Z,42.8
2022-11-25T15:46:53.584Z,42.7
2022-11-25T15:49:20.175Z,42.7
2022-11-25T15:51:46.970Z,42.7
2022-11-25T15:54:13.488Z,42.7
2022-11-25T15:56:40.357Z,42.7
2022-11-25T15:59:07.025Z,42.6
2022-11-25T16:01:32.082Z,42.5
2022-11-25T16:03:58.761Z,42.4
2022-11-25T16:06:25.636Z,42.5
2022-11-25T16:08:52.310Z,42.5
2022-11-25T16:11:19.041Z,42.6
2022-11-25T16:13:45.539Z,42.5
2022-11-25T16:16:12.362Z,42.5
2022-11-25T16:18:39.160Z,42.5
2022-11-25T16:21:05.741Z,42.6
2022-11-25T16:23:32.241Z,42.6
2022-11-25T16:26:01.107Z,42.6
2022-11-25T16:28:25.865Z,42.8
2022-11-25T16:30:52.432Z,42.9
2022-11-25T16:33:19.137Z,42.8
2022-11-25T16:35:44.270Z,42.8
2022-11-25T16:38:10.888Z,42.8
2022-11-25T16:40:37.754Z,42.8
2022-11-25T16:43:04.381Z,42.8
2022-11-25T16:45:30.951Z,42.8
2022-11-25T16:47:57.782Z,42.9
2022-11-25T16:50:24.446Z,42.9
2022-11-25T16:52:51.186Z,42.9
2022-11-25T16:55:17.867Z,42.9
2022-11-25T16:57:44.558Z,42.9
2022-11-25T17:00:11.050Z,42.9
2022-11-25T17:02:37.936Z,43
2022-11-25T17:05:04.606Z,43.2
2022-11-25T17:07:29.764Z,43.5
2022-11-25T17:09:56.374Z,43.7
2022-11-25T17:12:23.140Z,43.8
2022-11-25T17:14:49.988Z,43.8
2022-11-25T17:17:16.528Z,43.8
2022-11-25T17:19:43.076Z,43.7
2022-11-25T17:22:09.944Z,43.6
2022-11-25T17:24:36.618Z,43.6
2022-11-25T17:27:03.151Z,43.7
2022-11-25T17:29:29.800Z,43.7
2022-11-25T17:31:56.634Z,43.6
2022-11-25T17:34:23.406Z,43.5
2022-11-25T17:36:50.012Z,43.5
2022-11-25T17:39:15.452Z,43.4
2022-11-25T17:41:41.996Z,43.3
2022-11-25T17:44:08.625Z,43.4
2022-11-25T17:46:35.379Z,43.5
2022-11-25T17:49:02.096Z,43.5
2022-11-25T17:51:28.676Z,43.6
2022-11-25T17:53:55.387Z,43.6
2022-11-25T17:56:21.916Z,43.6
2022-11-25T17:58:48.765Z,43.7
2022-11-25T18:01:15.411Z,43.8
2022-11-25T18:03:41.951Z,43.8
2022-11-25T18:06:08.735Z,43.8
2022-11-25T18:08:35.473Z,43.8
2022-11-25T18:11:00.692Z,43.7
2022-11-25T18:13:27.348Z,43.7
2022-11-25T18:15:54.116Z,43.6
2022-11-25T18:18:20.838Z,43.6
2022-11-25T18:20:47.278Z,43.6
2022-11-25T18:23:14.194Z,43.6
2022-11-25T18:25:40.693Z,43.6
2022-11-25T18:28:08.956Z,43.6
2022-11-25T18:30:34.222Z,43.5
2022-11-25T18:33:00.708Z,43.6
2022-11-25T18:35:27.399Z,43.6
2022-11-25T18:37:54.069Z,43.7
2022-11-25T18:40:20.854Z,43.7
2022-11-25T18:42:46.053Z,43.8
2022-11-25T18:45:12.654Z,43.8
2022-11-25T18:47:39.349Z,43.7
2022-11-25T18:50:06.035Z,43.7
2022-11-25T18:52:32.746Z,43.7
2022-11-25T18:54:59.414Z,43.6
2022-11-25T18:57:26.155Z,43.6
2022-11-25T18:59:52.760Z,43.6
2022-11-25T19:02:19.457Z,43.5
2022-11-25T19:04:46.147Z,43.6
2022-11-25T19:07:12.813Z,43.7
2022-11-25T19:09:39.496Z,43.7
2022-11-25T19:12:06.183Z,43.8
2022-11-25T19:14:32.917Z,43.8
2022-11-25T19:16:58.292Z,43.9
2022-11-25T19:19:24.777Z,43.9
2022-11-25T19:21:51.466Z,43.9
2022-11-25T19:24:18.150Z,43.9
2022-11-25T19:26:44.837Z,43.9
2022-11-25T19:29:11.580Z,43.9
2022-11-25T19:31:38.196Z,43.9
2022-11-25T19:34:04.923Z,43.8
2022-11-25T19:36:31.630Z,43.8
2022-11-25T19:38:58.269Z,43.8
2022-11-25T19:41:26.532Z,43.9
2022-11-25T19:43:51.626Z,43.9
2022-11-25T19:46:18.315Z,43.9
2022-11-25T19:48:44.996Z,43.9
2022-11-25T19:51:10.230Z,43.9
2022-11-25T19:53:36.916Z,43.8
2022-11-25T19:56:03.606Z,43.8
2022-11-25T19:58:30.283Z,43.9
2022-11-25T20:00:56.987Z,44
2022-11-25T20:03:23.651Z,44.1
2022-11-25T20:05:50.332Z,44.3
2022-11-25T20:08:17.142Z,44.3
2022-11-25T20:10:43.705Z,44.3
2022-11-25T20:13:10.387Z,44.3
2022-11-25T20:15:37.089Z,44.3
2022-11-25T20:18:03.757Z,44.3
2022-11-25T20:20:30.476Z,44.3
2022-11-25T20:22:57.138Z,44.4
2022-11-25T20:25:22.344Z,44.4
2022-11-25T20:27:49.032Z,44.4
2022-11-25T20:30:16.188Z,44.4
2022-11-25T20:35:09.232Z,44.3
2022-11-25T20:37:35.784Z,44.4
2022-11-25T20:40:02.466Z,44.5
2022-11-25T20:42:29.137Z,44.5
2022-11-25T20:44:55.828Z,44.6
2022-11-25T20:47:22.516Z,44.7
2022-11-25T20:49:49.197Z,44.8
2022-11-25T20:52:15.889Z,44.9
2022-11-25T20:54:47.241Z,45
2022-11-25T20:57:09.244Z,45.2
2022-11-25T20:59:35.940Z,45.5
2022-11-25T21:02:02.629Z,45.8
2022-11-25T21:04:27.851Z,46.1
2022-11-25T21:06:54.530Z,46.3
2022-11-25T21:09:21.199Z,46.6
2022-11-25T21:11:47.894Z,46.9
2022-11-25T21:14:14.583Z,47.1
2022-11-25T21:19:08.791Z,47.4
2022-11-25T21:21:34.647Z,47.5
2022-11-25T21:24:01.320Z,47.7
2022-11-25T21:26:28.014Z,47.9
2022-11-25T21:28:54.696Z,48
2022-11-25T21:31:21.379Z,48.3
2022-11-25T21:33:48.060Z,48.3
2022-11-25T21:36:13.280Z,48.5
2022-11-25T21:38:39.959Z,48.6
2022-11-25T21:41:06.671Z,48.7
2022-11-25T21:43:36.633Z,49
2022-11-25T21:46:00.037Z,49
2022-11-25T21:48:26.800Z,49
2022-11-25T21:50:53.390Z,48.9
2022-11-25T21:53:20.166Z,48.7
2022-11-25T21:55:46.766Z,48.6
2022-11-25T21:58:13.452Z,48.4
2022-11-25T22:00:40.142Z,48.3
2022-11-25T22:03:06.820Z,48.2
2022-11-25T22:05:33.496Z,48.2
2022-11-25T22:07:59.015Z,48
2022-11-25T22:10:25.409Z,48
2022-11-25T22:12:52.101Z,48
2022-11-25T22:15:18.778Z,48
2022-11-25T22:17:45.465Z,47.8
2022-11-25T22:20:12.173Z,47.7
2022-11-25T22:22:38.828Z,47.7
2022-11-25T22:25:05.523Z,47.7
2022-11-25T22:27:32.193Z,47.6
2022-11-25T22:29:58.885Z,47.6
2022-11-25T22:32:26.294Z,47.5
2022-11-25T22:34:52.265Z,47.2
2022-11-25T22:37:18.946Z,46.9
2022-11-25T22:39:44.249Z,46.3
2022-11-25T22:42:10.835Z,45.9
2022-11-25T22:44:37.541Z,45.8
2022-11-25T22:47:04.219Z,45.9
2022-11-25T22:49:30.898Z,45.9
2022-11-25T22:51:57.592Z,45.8
2022-11-25T22:54:24.262Z,45.8
2022-11-25T22:59:17.638Z,45.8
2022-11-25T23:01:44.427Z,45.8
2022-11-25T23:04:10.991Z,45.9
2022-11-25T23:06:37.686Z,45.9
2022-11-25T23:09:04.374Z,46
2022-11-25T23:11:31.063Z,46.1
2022-11-25T23:13:56.292Z,46.2
2022-11-25T23:16:23.017Z,46.1
2022-11-25T23:18:49.657Z,46.2
2022-11-25T23:21:16.495Z,46.3
2022-11-25T23:23:43.025Z,46.4
2022-11-25T23:26:09.719Z,46.4
2022-11-25T23:28:36.422Z,46.4
2022-11-25T23:31:03.083Z,46.4
2022-11-25T23:33:29.757Z,46.4
2022-11-25T23:35:55.011Z,46.4
2022-11-25T23:38:21.690Z,46.4
2022-11-25T23:40:48.380Z,46.4
2022-11-25T23:45:42.252Z,46.6
2022-11-25T23:48:08.428Z,46.6
2022-11-25T23:50:35.118Z,46.6
2022-11-25T23:53:01.783Z,46.5
2022-11-25T23:55:28.490Z,46.4
2022-11-25T23:57:55.161Z,46.3
